sensor_id;sensor_type;location;lat;lon;timestamp;P1;durP1;ratioP1;P2;durP2;ratioP2
22525;SDS011;11429;50.842;4.386;2024-03-23T00:55:40;10.10;;;4.70;;
22525;SDS011;11429;50.842;4.386;2024-03-23T00:58:06;16.90;;;4.40;;
22525;SDS011;11429;50.842;4.386;2024-03-23T01:00:32;12.85;;;3.58;;
22525;SDS011;11429;50.842;4.386;2024-03-23T01:02:58;10.30;;;4.00;;
22525;SDS011;11429;50.842;4.386;2024-03-23T01:05:23;9.95;;;3.70;;
22525;SDS011;11429;50.842;4.386;2024-03-23T01:07:49;15.05;;;3.60;;
22525;SDS011;11429;50.842;4.386;2024-03-23T01:10:15;12.43;;;4.25;;
22525;SDS011;11429;50.842;4.386;2024-03-23T01:12:40;11.15;;;3.78;;
22525;SDS011;11429;50.842;4.386;2024-03-23T01:15:06;10.63;;;4.03;;
22525;SDS011;11429;50.842;4.386;2024-03-23T01:17:32;25.55;;;13.75;;
22525;SDS011;11429;50.842;4.386;2024-03-23T01:19:58;12.10;;;3.78;;
22525;SDS011;11429;50.842;4.386;2024-03-23T01:22:23;11.25;;;4.47;;
22525;SDS011;11429;50.842;4.386;2024-03-23T01:24:50;13.77;;;4.68;;
22525;SDS011;11429;50.842;4.386;2024-03-23T01:27:15;11.57;;;4.13;;
22525;SDS011;11429;50.842;4.386;2024-03-23T01:29:41;11.73;;;4.45;;
22525;SDS011;11429;50.842;4.386;2024-03-23T01:32:07;11.43;;;3.90;;
22525;SDS011;11429;50.842;4.386;2024-03-23T01:34:33;14.68;;;4.57;;
22525;SDS011;11429;50.842;4.386;2024-03-23T01:36:58;13.15;;;4.80;;
22525;SDS011;11429;50.842;4.386;2024-03-23T01:39:24;11.07;;;4.60;;
22525;SDS011;11429;50.842;4.386;2024-03-23T01:41:50;17.13;;;6.00;;
22525;SDS011;11429;50.842;4.386;2024-03-23T01:44:16;14.15;;;5.88;;
22525;SDS011;11429;50.842;4.386;2024-03-23T01:46:42;13.98;;;6.60;;
22525;SDS011;11429;50.842;4.386;2024-03-23T01:49:09;18.05;;;6.90;;
22525;SDS011;11429;50.842;4.386;2024-03-23T01:51:35;13.68;;;6.63;;
22525;SDS011;11429;50.842;4.386;2024-03-23T01:54:02;16.70;;;6.60;;
22525;SDS011;11429;50.842;4.386;2024-03-23T01:56:32;15.98;;;7.40;;
22525;SDS011;11429;50.842;4.386;2024-03-23T01:59:00;13.30;;;6.45;;
22525;SDS011;11429;50.842;4.386;2024-03-23T02:01:27;18.05;;;7.65;;
22525;SDS011;11429;50.842;4.386;2024-03-23T02:03:52;16.02;;;7.13;;
22525;SDS011;11429;50.842;4.386;2024-03-23T02:06:18;18.80;;;8.00;;
22525;SDS011;11429;50.842;4.386;2024-03-23T02:08:44;15.35;;;7.72;;
22525;SDS011;11429;50.842;4.386;2024-03-23T02:11:10;19.75;;;7.88;;
22525;SDS011;11429;50.842;4.386;2024-03-23T02:13:35;17.58;;;7.78;;
22525;SDS011;11429;50.842;4.386;2024-03-23T02:16:01;13.63;;;7.38;;
22525;SDS011;11429;50.842;4.386;2024-03-23T02:18:27;22.90;;;8.57;;
22525;SDS011;11429;50.842;4.386;2024-03-23T02:20:53;17.25;;;7.30;;
22525;SDS011;11429;50.842;4.386;2024-03-23T02:23:18;18.98;;;7.82;;
22525;SDS011;11429;50.842;4.386;2024-03-23T02:25:45;19.17;;;7.95;;
22525;SDS011;11429;50.842;4.386;2024-03-23T02:28:10;17.38;;;8.40;;
22525;SDS011;11429;50.842;4.386;2024-03-23T02:30:36;20.25;;;8.18;;
22525;SDS011;11429;50.842;4.386;2024-03-23T02:33:02;16.42;;;7.80;;
22525;SDS011;11429;50.842;4.386;2024-03-23T02:35:28;16.52;;;7.72;;
22525;SDS011;11429;50.842;4.386;2024-03-23T02:37:54;20.08;;;8.55;;
22525;SDS011;11429;50.842;4.386;2024-03-23T02:40:23;19.88;;;9.27;;
22525;SDS011;11429;50.842;4.386;2024-03-23T02:42:49;18.35;;;9.25;;
22525;SDS011;11429;50.842;4.386;2024-03-23T02:45:15;15.95;;;8.38;;
22525;SDS011;11429;50.842;4.386;2024-03-23T02:47:41;20.42;;;8.90;;
22525;SDS011;11429;50.842;4.386;2024-03-23T02:50:07;21.48;;;8.63;;
22525;SDS011;11429;50.842;4.386;2024-03-23T02:52:34;23.48;;;9.80;;
22525;SDS011;11429;50.842;4.386;2024-03-23T02:54:59;20.52;;;8.35;;
22525;SDS011;11429;50.842;4.386;2024-03-23T02:57:27;18.65;;;9.05;;
22525;SDS011;11429;50.842;4.386;2024-03-23T02:59:53;18.17;;;8.15;;
22525;SDS011;11429;50.842;4.386;2024-03-23T03:02:19;15.13;;;8.20;;
22525;SDS011;11429;50.842;4.386;2024-03-23T03:04:45;20.50;;;8.23;;
22525;SDS011;11429;50.842;4.386;2024-03-23T03:07:11;23.42;;;8.88;;
22525;SDS011;11429;50.842;4.386;2024-03-23T03:09:37;25.27;;;9.95;;
22525;SDS011;11429;50.842;4.386;2024-03-23T03:12:04;21.58;;;9.30;;
22525;SDS011;11429;50.842;4.386;2024-03-23T03:14:33;17.85;;;9.18;;
22525;SDS011;11429;50.842;4.386;2024-03-23T03:16:59;24.50;;;10.27;;
22525;SDS011;11429;50.842;4.386;2024-03-23T03:19:25;23.85;;;9.65;;
22525;SDS011;11429;50.842;4.386;2024-03-23T03:21:51;19.67;;;9.20;;
22525;SDS011;11429;50.842;4.386;2024-03-23T03:24:17;21.02;;;9.05;;
22525;SDS011;11429;50.842;4.386;2024-03-23T03:26:43;22.65;;;9.52;;
22525;SDS011;11429;50.842;4.386;2024-03-23T03:29:09;23.15;;;10.30;;
22525;SDS011;11429;50.842;4.386;2024-03-23T03:31:35;20.23;;;9.32;;
22525;SDS011;11429;50.842;4.386;2024-03-23T03:34:01;20.75;;;9.77;;
22525;SDS011;11429;50.842;4.386;2024-03-23T03:36:27;21.50;;;9.50;;
22525;SDS011;11429;50.842;4.386;2024-03-23T03:38:53;20.88;;;9.48;;
22525;SDS011;11429;50.842;4.386;2024-03-23T03:41:19;27.48;;;9.85;;
22525;SDS011;11429;50.842;4.386;2024-03-23T03:43:44;18.42;;;8.73;;
22525;SDS011;11429;50.842;4.386;2024-03-23T03:46:10;20.98;;;9.18;;
22525;SDS011;11429;50.842;4.386;2024-03-23T03:48:36;21.85;;;9.43;;
22525;SDS011;11429;50.842;4.386;2024-03-23T03:51:02;24.13;;;9.35;;
22525;SDS011;11429;50.842;4.386;2024-03-23T03:53:28;21.58;;;8.73;;
22525;SDS011;11429;50.842;4.386;2024-03-23T03:55:55;19.90;;;9.00;;
22525;SDS011;11429;50.842;4.386;2024-03-23T03:58:21;24.10;;;9.65;;
22525;SDS011;11429;50.842;4.386;2024-03-23T04:00:46;22.13;;;10.45;;
22525;SDS011;11429;50.842;4.386;2024-03-23T04:03:12;18.55;;;9.88;;
22525;SDS011;11429;50.842;4.386;2024-03-23T04:05:38;23.85;;;10.05;;
22525;SDS011;11429;50.842;4.386;2024-03-23T04:08:04;24.08;;;9.95;;
22525;SDS011;11429;50.842;4.386;2024-03-23T04:10:30;24.73;;;10.23;;
22525;SDS011;11429;50.842;4.386;2024-03-23T04:12:56;18.08;;;9.43;;
22525;SDS011;11429;50.842;4.386;2024-03-23T04:15:22;23.33;;;9.30;;
22525;SDS011;11429;50.842;4.386;2024-03-23T04:17:47;22.15;;;10.13;;
22525;SDS011;11429;50.842;4.386;2024-03-23T04:20:13;21.75;;;9.65;;
22525;SDS011;11429;50.842;4.386;2024-03-23T04:22:42;21.67;;;9.07;;
22525;SDS011;11429;50.842;4.386;2024-03-23T04:25:08;20.65;;;10.00;;
22525;SDS011;11429;50.842;4.386;2024-03-23T04:27:38;18.85;;;8.57;;
22525;SDS011;11429;50.842;4.386;2024-03-23T04:30:04;19.02;;;7.85;;
22525;SDS011;11429;50.842;4.386;2024-03-23T04:32:35;18.42;;;8.27;;
22525;SDS011;11429;50.842;4.386;2024-03-23T04:35:01;21.83;;;8.23;;
22525;SDS011;11429;50.842;4.386;2024-03-23T04:37:30;18.77;;;8.52;;
22525;SDS011;11429;50.842;4.386;2024-03-23T04:39:59;19.60;;;7.80;;
22525;SDS011;11429;50.842;4.386;2024-03-23T04:42:26;19.65;;;7.28;;
22525;SDS011;11429;50.842;4.386;2024-03-23T04:44:52;14.80;;;7.20;;
22525;SDS011;11429;50.842;4.386;2024-03-23T04:47:18;18.35;;;7.13;;
22525;SDS011;11429;50.842;4.386;2024-03-23T04:49:44;18.02;;;7.15;;
22525;SDS011;11429;50.842;4.386;2024-03-23T04:52:10;17.73;;;6.70;;
22525;SDS011;11429;50.842;4.386;2024-03-23T04:54:36;16.00;;;6.88;;
22525;SDS011;11429;50.842;4.386;2024-03-23T04:57:01;15.68;;;6.38;;
22525;SDS011;11429;50.842;4.386;2024-03-23T04:59:27;12.85;;;6.40;;
22525;SDS011;11429;50.842;4.386;2024-03-23T05:01:53;13.77;;;7.18;;
22525;SDS011;11429;50.842;4.386;2024-03-23T05:04:18;16.33;;;7.65;;
22525;SDS011;11429;50.842;4.386;2024-03-23T05:06:44;16.10;;;7.10;;
22525;SDS011;11429;50.842;4.386;2024-03-23T05:09:10;13.98;;;6.07;;
22525;SDS011;11429;50.842;4.386;2024-03-23T05:11:37;20.70;;;6.93;;
22525;SDS011;11429;50.842;4.386;2024-03-23T05:14:03;16.35;;;7.50;;
22525;SDS011;11429;50.842;4.386;2024-03-23T05:16:29;18.73;;;6.18;;
22525;SDS011;11429;50.842;4.386;2024-03-23T05:18:55;10.73;;;6.53;;
22525;SDS011;11429;50.842;4.386;2024-03-23T05:21:20;13.35;;;7.38;;
22525;SDS011;11429;50.842;4.386;2024-03-23T05:23:46;18.10;;;7.07;;
22525;SDS011;11429;50.842;4.386;2024-03-23T05:26:12;18.75;;;7.53;;
22525;SDS011;11429;50.842;4.386;2024-03-23T05:28:38;16.17;;;6.95;;
22525;SDS011;11429;50.842;4.386;2024-03-23T05:31:05;16.95;;;7.35;;
22525;SDS011;11429;50.842;4.386;2024-03-23T05:33:30;14.50;;;6.70;;
22525;SDS011;11429;50.842;4.386;2024-03-23T05:35:57;18.08;;;7.22;;
22525;SDS011;11429;50.842;4.386;2024-03-23T05:38:23;16.85;;;7.18;;
22525;SDS011;11429;50.842;4.386;2024-03-23T05:40:59;15.48;;;5.38;;
22525;SDS011;11429;50.842;4.386;2024-03-23T05:43:25;17.02;;;6.40;;
22525;SDS011;11429;50.842;4.386;2024-03-23T05:45:55;16.73;;;6.50;;
22525;SDS011;11429;50.842;4.386;2024-03-23T05:48:22;15.88;;;6.13;;
22525;SDS011;11429;50.842;4.386;2024-03-23T05:50:48;13.95;;;6.75;;
22525;SDS011;11429;50.842;4.386;2024-03-23T05:53:15;17.33;;;5.72;;
22525;SDS011;11429;50.842;4.386;2024-03-23T05:55:42;15.65;;;5.72;;
22525;SDS011;11429;50.842;4.386;2024-03-23T05:58:08;15.50;;;4.88;;
22525;SDS011;11429;50.842;4.386;2024-03-23T06:00:33;14.48;;;5.55;;
22525;SDS011;11429;50.842;4.386;2024-03-23T06:02:59;14.52;;;4.43;;
22525;SDS011;11429;50.842;4.386;2024-03-23T06:05:25;13.93;;;4.50;;
22525;SDS011;11429;50.842;4.386;2024-03-23T06:07:50;11.70;;;4.38;;
22525;SDS011;11429;50.842;4.386;2024-03-23T06:10:16;12.88;;;3.70;;
22525;SDS011;11429;50.842;4.386;2024-03-23T06:12:42;13.20;;;3.75;;
22525;SDS011;11429;50.842;4.386;2024-03-23T06:15:08;12.48;;;3.50;;
22525;SDS011;11429;50.842;4.386;2024-03-23T06:17:38;13.68;;;3.63;;
22525;SDS011;11429;50.842;4.386;2024-03-23T06:20:05;13.85;;;3.53;;
22525;SDS011;11429;50.842;4.386;2024-03-23T06:22:31;13.63;;;3.90;;
22525;SDS011;11429;50.842;4.386;2024-03-23T06:24:58;15.38;;;3.90;;
22525;SDS011;11429;50.842;4.386;2024-03-23T06:27:24;12.27;;;3.22;;
22525;SDS011;11429;50.842;4.386;2024-03-23T06:29:50;10.60;;;3.35;;
22525;SDS011;11429;50.842;4.386;2024-03-23T06:32:16;13.70;;;3.42;;
22525;SDS011;11429;50.842;4.386;2024-03-23T06:34:43;14.70;;;3.78;;
22525;SDS011;11429;50.842;4.386;2024-03-23T06:37:09;12.98;;;3.17;;
22525;SDS011;11429;50.842;4.386;2024-03-23T06:39:38;11.73;;;3.17;;
22525;SDS011;11429;50.842;4.386;2024-03-23T06:42:04;14.60;;;3.42;;
22525;SDS011;11429;50.842;4.386;2024-03-23T06:44:30;16.27;;;3.72;;
22525;SDS011;11429;50.842;4.386;2024-03-23T06:46:56;14.30;;;2.92;;
22525;SDS011;11429;50.842;4.386;2024-03-23T06:49:22;14.38;;;3.13;;
22525;SDS011;11429;50.842;4.386;2024-03-23T06:51:48;17.60;;;3.78;;
22525;SDS011;11429;50.842;4.386;2024-03-23T06:54:16;8.10;;;3.08;;
22525;SDS011;11429;50.842;4.386;2024-03-23T06:56:44;16.25;;;3.90;;
22525;SDS011;11429;50.842;4.386;2024-03-23T06:59:09;12.55;;;3.55;;
22525;SDS011;11429;50.842;4.386;2024-03-23T07:01:35;16.80;;;3.83;;
22525;SDS011;11429;50.842;4.386;2024-03-23T07:04:01;11.25;;;3.35;;
22525;SDS011;11429;50.842;4.386;2024-03-23T07:06:27;11.82;;;3.28;;
22525;SDS011;11429;50.842;4.386;2024-03-23T07:08:53;11.57;;;3.72;;
22525;SDS011;11429;50.842;4.386;2024-03-23T07:11:19;8.50;;;3.03;;
22525;SDS011;11429;50.842;4.386;2024-03-23T07:13:51;8.73;;;2.65;;
22525;SDS011;11429;50.842;4.386;2024-03-23T07:16:21;8.05;;;2.55;;
22525;SDS011;11429;50.842;4.386;2024-03-23T07:18:47;10.88;;;2.83;;
22525;SDS011;11429;50.842;4.386;2024-03-23T07:21:15;10.68;;;2.50;;
22525;SDS011;11429;50.842;4.386;2024-03-23T07:23:43;8.60;;;2.65;;
22525;SDS011;11429;50.842;4.386;2024-03-23T07:26:12;10.07;;;3.70;;
22525;SDS011;11429;50.842;4.386;2024-03-23T07:28:38;11.13;;;2.95;;
22525;SDS011;11429;50.842;4.386;2024-03-23T07:31:09;10.55;;;2.95;;
22525;SDS011;11429;50.842;4.386;2024-03-23T07:33:44;10.85;;;3.60;;
22525;SDS011;11429;50.842;4.386;2024-03-23T07:36:12;15.07;;;3.80;;
22525;SDS011;11429;50.842;4.386;2024-03-23T07:38:41;17.67;;;3.53;;
22525;SDS011;11429;50.842;4.386;2024-03-23T07:41:10;11.45;;;3.42;;
22525;SDS011;11429;50.842;4.386;2024-03-23T07:43:46;12.73;;;3.40;;
22525;SDS011;11429;50.842;4.386;2024-03-23T07:46:12;11.70;;;3.90;;
22525;SDS011;11429;50.842;4.386;2024-03-23T07:48:39;13.77;;;3.88;;
22525;SDS011;11429;50.842;4.386;2024-03-23T07:51:11;12.43;;;3.65;;
22525;SDS011;11429;50.842;4.386;2024-03-23T07:53:42;12.55;;;3.20;;
22525;SDS011;11429;50.842;4.386;2024-03-23T07:56:09;12.73;;;3.42;;
22525;SDS011;11429;50.842;4.386;2024-03-23T07:58:35;16.25;;;3.58;;
22525;SDS011;11429;50.842;4.386;2024-03-23T08:01:05;12.85;;;3.55;;
22525;SDS011;11429;50.842;4.386;2024-03-23T08:03:35;9.55;;;3.35;;
22525;SDS011;11429;50.842;4.386;2024-03-23T08:08:34;10.77;;;3.05;;
22525;SDS011;11429;50.842;4.386;2024-03-23T08:11:00;11.55;;;3.58;;
22525;SDS011;11429;50.842;4.386;2024-03-23T08:13:26;10.07;;;3.50;;
22525;SDS011;11429;50.842;4.386;2024-03-23T08:15:51;9.73;;;3.13;;
22525;SDS011;11429;50.842;4.386;2024-03-23T08:18:21;10.73;;;3.35;;
22525;SDS011;11429;50.842;4.386;2024-03-23T08:20:47;14.40;;;3.15;;
22525;SDS011;11429;50.842;4.386;2024-03-23T08:23:20;12.40;;;3.47;;
22525;SDS011;11429;50.842;4.386;2024-03-23T08:25:45;15.43;;;3.50;;
22525;SDS011;11429;50.842;4.386;2024-03-23T08:28:11;10.82;;;3.17;;
22525;SDS011;11429;50.842;4.386;2024-03-23T08:30:37;15.13;;;3.28;;
22525;SDS011;11429;50.842;4.386;2024-03-23T08:33:02;12.68;;;3.25;;
22525;SDS011;11429;50.842;4.386;2024-03-23T08:35:28;8.98;;;3.10;;
22525;SDS011;11429;50.842;4.386;2024-03-23T08:37:54;12.32;;;3.53;;
22525;SDS011;11429;50.842;4.386;2024-03-23T08:40:20;11.88;;;3.63;;
22525;SDS011;11429;50.842;4.386;2024-03-23T08:42:45;12.70;;;3.05;;
22525;SDS011;11429;50.842;4.386;2024-03-23T08:45:11;10.80;;;3.45;;
22525;SDS011;11429;50.842;4.386;2024-03-23T08:47:37;12.25;;;3.50;;
22525;SDS011;11429;50.842;4.386;2024-03-23T08:50:02;12.05;;;3.20;;
22525;SDS011;11429;50.842;4.386;2024-03-23T08:52:28;11.27;;;2.97;;
22525;SDS011;11429;50.842;4.386;2024-03-23T08:54:55;10.38;;;3.17;;
22525;SDS011;11429;50.842;4.386;2024-03-23T08:57:22;12.25;;;2.95;;
22525;SDS011;11429;50.842;4.386;2024-03-23T08:59:48;10.77;;;3.13;;
22525;SDS011;11429;50.842;4.386;2024-03-23T09:02:13;10.68;;;3.10;;
22525;SDS011;11429;50.842;4.386;2024-03-23T09:04:39;11.38;;;2.80;;
22525;SDS011;11429;50.842;4.386;2024-03-23T09:07:05;8.20;;;2.50;;
22525;SDS011;11429;50.842;4.386;2024-03-23T09:09:30;9.25;;;2.75;;
22525;SDS011;11429;50.842;4.386;2024-03-23T09:11:56;12.85;;;2.67;;
22525;SDS011;11429;50.842;4.386;2024-03-23T09:14:22;10.15;;;2.92;;
22525;SDS011;11429;50.842;4.386;2024-03-23T09:16:51;10.75;;;2.30;;
22525;SDS011;11429;50.842;4.386;2024-03-23T09:19:17;9.85;;;3.20;;
22525;SDS011;11429;50.842;4.386;2024-03-23T09:21:42;9.05;;;2.70;;
22525;SDS011;11429;50.842;4.386;2024-03-23T09:24:08;9.93;;;2.60;;
22525;SDS011;11429;50.842;4.386;2024-03-23T09:26:34;9.50;;;3.60;;
22525;SDS011;11429;50.842;4.386;2024-03-23T09:29:00;8.23;;;2.88;;
22525;SDS011;11429;50.842;4.386;2024-03-23T09:31:25;10.30;;;2.63;;
22525;SDS011;11429;50.842;4.386;2024-03-23T09:33:51;9.20;;;2.60;;
22525;SDS011;11429;50.842;4.386;2024-03-23T09:36:17;9.48;;;3.05;;
22525;SDS011;11429;50.842;4.386;2024-03-23T09:38:42;9.85;;;3.17;;
22525;SDS011;11429;50.842;4.386;2024-03-23T09:41:08;8.57;;;2.90;;
22525;SDS011;11429;50.842;4.386;2024-03-23T09:43:34;8.77;;;2.97;;
22525;SDS011;11429;50.842;4.386;2024-03-23T09:46:01;8.93;;;3.35;;
22525;SDS011;11429;50.842;4.386;2024-03-23T09:48:28;7.57;;;2.50;;
22525;SDS011;11429;50.842;4.386;2024-03-23T09:50:53;7.85;;;2.50;;
22525;SDS011;11429;50.842;4.386;2024-03-23T09:53:19;9.25;;;2.97;;
22525;SDS011;11429;50.842;4.386;2024-03-23T09:55:47;7.63;;;2.63;;
22525;SDS011;11429;50.842;4.386;2024-03-23T09:58:14;8.05;;;2.90;;
22525;SDS011;11429;50.842;4.386;2024-03-23T10:00:41;6.95;;;2.78;;
22525;SDS011;11429;50.842;4.386;2024-03-23T10:03:07;8.68;;;2.85;;
22525;SDS011;11429;50.842;4.386;2024-03-23T10:05:33;12.93;;;3.33;;
22525;SDS011;11429;50.842;4.386;2024-03-23T10:10:40;9.15;;;2.50;;
22525;SDS011;11429;50.842;4.386;2024-03-23T10:13:06;8.77;;;2.80;;
22525;SDS011;11429;50.842;4.386;2024-03-23T10:15:36;6.05;;;2.72;;
22525;SDS011;11429;50.842;4.386;2024-03-23T10:18:18;5.45;;;2.55;;
22525;SDS011;11429;50.842;4.386;2024-03-23T10:20:47;5.38;;;2.55;;
22525;SDS011;11429;50.842;4.386;2024-03-23T10:23:16;5.50;;;2.45;;
22525;SDS011;11429;50.842;4.386;2024-03-23T10:25:42;5.00;;;2.05;;
22525;SDS011;11429;50.842;4.386;2024-03-23T10:28:08;7.18;;;2.60;;
22525;SDS011;11429;50.842;4.386;2024-03-23T10:30:34;7.20;;;2.30;;
22525;SDS011;11429;50.842;4.386;2024-03-23T10:33:10;6.53;;;2.45;;
22525;SDS011;11429;50.842;4.386;2024-03-23T10:35:39;9.13;;;2.60;;
22525;SDS011;11429;50.842;4.386;2024-03-23T10:38:05;12.57;;;5.82;;
22525;SDS011;11429;50.842;4.386;2024-03-23T10:40:33;4.85;;;2.00;;
22525;SDS011;11429;50.842;4.386;2024-03-23T10:43:00;6.47;;;3.00;;
22525;SDS011;11429;50.842;4.386;2024-03-23T10:45:31;4.88;;;2.03;;
22525;SDS011;11429;50.842;4.386;2024-03-23T10:47:57;5.07;;;2.03;;
22525;SDS011;11429;50.842;4.386;2024-03-23T10:50:23;6.05;;;2.03;;
22525;SDS011;11429;50.842;4.386;2024-03-23T10:52:49;6.93;;;2.67;;
22525;SDS011;11429;50.842;4.386;2024-03-23T10:55:17;8.60;;;2.30;;
22525;SDS011;11429;50.842;4.386;2024-03-23T10:57:55;6.55;;;2.22;;
22525;SDS011;11429;50.842;4.386;2024-03-23T11:00:24;6.55;;;1.85;;
22525;SDS011;11429;50.842;4.386;2024-03-23T11:02:50;6.80;;;2.20;;
22525;SDS011;11429;50.842;4.386;2024-03-23T11:10:27;6.28;;;2.28;;
22525;SDS011;11429;50.842;4.386;2024-03-23T11:12:55;3.83;;;1.63;;
22525;SDS011;11429;50.842;4.386;2024-03-23T11:15:40;9.18;;;2.05;;
22525;SDS011;11429;50.842;4.386;2024-03-23T11:18:06;5.43;;;1.58;;
22525;SDS011;11429;50.842;4.386;2024-03-23T11:20:37;6.00;;;1.80;;
22525;SDS011;11429;50.842;4.386;2024-03-23T11:23:04;4.35;;;1.50;;
22525;SDS011;11429;50.842;4.386;2024-03-23T11:25:29;3.53;;;1.42;;
22525;SDS011;11429;50.842;4.386;2024-03-23T11:27:56;7.15;;;1.90;;
22525;SDS011;11429;50.842;4.386;2024-03-23T11:30:23;7.70;;;1.98;;
22525;SDS011;11429;50.842;4.386;2024-03-23T11:32:51;4.47;;;1.50;;
22525;SDS011;11429;50.842;4.386;2024-03-23T11:35:25;9.48;;;2.45;;
22525;SDS011;11429;50.842;4.386;2024-03-23T11:38:10;4.45;;;1.90;;
22525;SDS011;11429;50.842;4.386;2024-03-23T11:40:40;5.25;;;2.08;;
22525;SDS011;11429;50.842;4.386;2024-03-23T11:43:14;5.85;;;1.80;;
22525;SDS011;11429;50.842;4.386;2024-03-23T11:48:11;4.75;;;1.40;;
22525;SDS011;11429;50.842;4.386;2024-03-23T11:50:39;4.18;;;1.70;;
22525;SDS011;11429;50.842;4.386;2024-03-23T11:55:46;5.03;;;1.88;;
22525;SDS011;11429;50.842;4.386;2024-03-23T11:58:12;4.93;;;1.55;;
22525;SDS011;11429;50.842;4.386;2024-03-23T12:00:38;7.13;;;2.03;;
22525;SDS011;11429;50.842;4.386;2024-03-23T12:03:04;5.10;;;1.67;;
22525;SDS011;11429;50.842;4.386;2024-03-23T12:05:31;4.25;;;1.35;;
22525;SDS011;11429;50.842;4.386;2024-03-23T12:13:36;4.70;;;2.00;;
22525;SDS011;11429;50.842;4.386;2024-03-23T12:16:16;4.88;;;2.22;;
22525;SDS011;11429;50.842;4.386;2024-03-23T12:18:43;6.53;;;1.88;;
22525;SDS011;11429;50.842;4.386;2024-03-23T12:21:16;4.72;;;1.98;;
22525;SDS011;11429;50.842;4.386;2024-03-23T12:23:43;7.68;;;1.70;;
22525;SDS011;11429;50.842;4.386;2024-03-23T12:26:13;6.32;;;1.70;;
22525;SDS011;11429;50.842;4.386;2024-03-23T12:28:40;4.75;;;1.20;;
22525;SDS011;11429;50.842;4.386;2024-03-23T12:31:06;4.60;;;1.30;;
22525;SDS011;11429;50.842;4.386;2024-03-23T12:33:32;4.55;;;1.10;;
22525;SDS011;11429;50.842;4.386;2024-03-23T12:35:57;4.63;;;1.48;;
22525;SDS011;11429;50.842;4.386;2024-03-23T12:38:23;5.18;;;1.38;;
22525;SDS011;11429;50.842;4.386;2024-03-23T12:40:52;7.93;;;2.10;;
22525;SDS011;11429;50.842;4.386;2024-03-23T12:43:18;9.52;;;2.25;;
22525;SDS011;11429;50.842;4.386;2024-03-23T12:45:47;6.45;;;1.95;;
22525;SDS011;11429;50.842;4.386;2024-03-23T12:48:14;6.90;;;1.92;;
22525;SDS011;11429;50.842;4.386;2024-03-23T12:50:40;7.70;;;2.30;;
22525;SDS011;11429;50.842;4.386;2024-03-23T12:53:05;8.10;;;1.92;;
22525;SDS011;11429;50.842;4.386;2024-03-23T12:55:31;7.15;;;1.60;;
22525;SDS011;11429;50.842;4.386;2024-03-23T12:57:57;7.72;;;1.75;;
22525;SDS011;11429;50.842;4.386;2024-03-23T13:00:22;10.57;;;2.00;;
22525;SDS011;11429;50.842;4.386;2024-03-23T13:02:48;5.82;;;1.45;;
22525;SDS011;11429;50.842;4.386;2024-03-23T13:05:14;5.15;;;1.65;;
22525;SDS011;11429;50.842;4.386;2024-03-23T13:07:40;3.40;;;1.20;;
22525;SDS011;11429;50.842;4.386;2024-03-23T13:10:05;4.65;;;1.50;;
22525;SDS011;11429;50.842;4.386;2024-03-23T13:12:32;4.72;;;1.50;;
22525;SDS011;11429;50.842;4.386;2024-03-23T13:14:58;5.32;;;1.50;;
22525;SDS011;11429;50.842;4.386;2024-03-23T13:17:25;6.45;;;1.60;;
22525;SDS011;11429;50.842;4.386;2024-03-23T13:19:52;4.03;;;1.55;;
22525;SDS011;11429;50.842;4.386;2024-03-23T13:22:18;5.75;;;1.75;;
22525;SDS011;11429;50.842;4.386;2024-03-23T13:24:44;7.90;;;1.48;;
22525;SDS011;11429;50.842;4.386;2024-03-23T13:27:10;5.90;;;1.65;;
22525;SDS011;11429;50.842;4.386;2024-03-23T13:29:36;5.78;;;1.55;;
22525;SDS011;11429;50.842;4.386;2024-03-23T13:32:03;4.78;;;1.50;;
22525;SDS011;11429;50.842;4.386;2024-03-23T13:34:29;4.10;;;1.20;;
22525;SDS011;11429;50.842;4.386;2024-03-23T13:36:55;3.40;;;1.23;;
22525;SDS011;11429;50.842;4.386;2024-03-23T13:39:24;5.70;;;1.15;;
22525;SDS011;11429;50.842;4.386;2024-03-23T13:41:50;3.85;;;1.02;;
22525;SDS011;11429;50.842;4.386;2024-03-23T13:44:16;3.47;;;1.42;;
22525;SDS011;11429;50.842;4.386;2024-03-23T13:46:42;6.78;;;1.40;;
22525;SDS011;11429;50.842;4.386;2024-03-23T13:49:13;5.97;;;1.50;;
22525;SDS011;11429;50.842;4.386;2024-03-23T13:52:01;4.60;;;1.30;;
22525;SDS011;11429;50.842;4.386;2024-03-23T13:54:27;6.00;;;1.40;;
22525;SDS011;11429;50.842;4.386;2024-03-23T13:56:53;5.00;;;1.42;;
22525;SDS011;11429;50.842;4.386;2024-03-23T13:59:21;9.23;;;1.85;;
22525;SDS011;11429;50.842;4.386;2024-03-23T14:01:50;4.03;;;1.30;;
22525;SDS011;11429;50.842;4.386;2024-03-23T14:04:16;3.08;;;1.50;;
22525;SDS011;11429;50.842;4.386;2024-03-23T14:06:43;4.85;;;1.63;;
22525;SDS011;11429;50.842;4.386;2024-03-23T14:09:11;4.32;;;1.50;;
22525;SDS011;11429;50.842;4.386;2024-03-23T14:11:38;6.95;;;1.48;;
22525;SDS011;11429;50.842;4.386;2024-03-23T14:14:05;7.28;;;1.52;;
22525;SDS011;11429;50.842;4.386;2024-03-23T14:16:31;8.40;;;2.13;;
22525;SDS011;11429;50.842;4.386;2024-03-23T14:18:57;6.95;;;1.80;;
22525;SDS011;11429;50.842;4.386;2024-03-23T14:21:23;6.45;;;1.73;;
22525;SDS011;11429;50.842;4.386;2024-03-23T14:23:48;3.97;;;1.40;;
22525;SDS011;11429;50.842;4.386;2024-03-23T14:26:15;4.30;;;1.38;;
22525;SDS011;11429;50.842;4.386;2024-03-23T14:28:40;5.40;;;1.48;;
22525;SDS011;11429;50.842;4.386;2024-03-23T14:31:06;5.60;;;1.85;;
22525;SDS011;11429;50.842;4.386;2024-03-23T14:33:36;7.00;;;1.70;;
22525;SDS011;11429;50.842;4.386;2024-03-23T14:36:02;5.70;;;1.65;;
22525;SDS011;11429;50.842;4.386;2024-03-23T14:38:29;7.40;;;1.50;;
22525;SDS011;11429;50.842;4.386;2024-03-23T14:40:58;13.02;;;2.00;;
22525;SDS011;11429;50.842;4.386;2024-03-23T14:43:28;5.50;;;1.50;;
22525;SDS011;11429;50.842;4.386;2024-03-23T14:46:28;7.15;;;1.75;;
22525;SDS011;11429;50.842;4.386;2024-03-23T14:48:47;8.98;;;2.47;;
22525;SDS011;11429;50.842;4.386;2024-03-23T14:51:13;5.10;;;1.63;;
22525;SDS011;11429;50.842;4.386;2024-03-23T14:53:39;4.40;;;1.20;;
22525;SDS011;11429;50.842;4.386;2024-03-23T14:56:07;6.30;;;1.75;;
22525;SDS011;11429;50.842;4.386;2024-03-23T14:58:34;2.90;;;1.27;;
22525;SDS011;11429;50.842;4.386;2024-03-23T15:01:03;12.18;;;2.10;;
22525;SDS011;11429;50.842;4.386;2024-03-23T15:03:30;5.22;;;2.10;;
22525;SDS011;11429;50.842;4.386;2024-03-23T15:05:56;6.40;;;1.60;;
22525;SDS011;11429;50.842;4.386;2024-03-23T15:08:24;8.35;;;1.80;;
22525;SDS011;11429;50.842;4.386;2024-03-23T15:10:50;5.90;;;1.70;;
22525;SDS011;11429;50.842;4.386;2024-03-23T15:13:16;5.07;;;1.83;;
22525;SDS011;11429;50.842;4.386;2024-03-23T15:15:42;5.85;;;1.67;;
22525;SDS011;11429;50.842;4.386;2024-03-23T15:18:12;7.50;;;1.70;;
22525;SDS011;11429;50.842;4.386;2024-03-23T15:20:40;6.45;;;1.73;;
22525;SDS011;11429;50.842;4.386;2024-03-23T15:23:06;7.15;;;2.00;;
22525;SDS011;11429;50.842;4.386;2024-03-23T15:25:32;6.28;;;1.75;;
22525;SDS011;11429;50.842;4.386;2024-03-23T15:27:59;6.75;;;2.08;;
22525;SDS011;11429;50.842;4.386;2024-03-23T15:30:25;5.07;;;1.40;;
22525;SDS011;11429;50.842;4.386;2024-03-23T15:32:51;8.02;;;2.00;;
22525;SDS011;11429;50.842;4.386;2024-03-23T15:35:17;6.28;;;2.08;;
22525;SDS011;11429;50.842;4.386;2024-03-23T15:37:46;5.97;;;1.67;;
22525;SDS011;11429;50.842;4.386;2024-03-23T15:40:12;7.93;;;1.80;;
22525;SDS011;11429;50.842;4.386;2024-03-23T15:42:38;5.28;;;1.80;;
22525;SDS011;11429;50.842;4.386;2024-03-23T15:45:06;5.63;;;1.48;;
22525;SDS011;11429;50.842;4.386;2024-03-23T15:47:32;5.85;;;1.58;;
22525;SDS011;11429;50.842;4.386;2024-03-23T15:49:59;7.47;;;2.08;;
22525;SDS011;11429;50.842;4.386;2024-03-23T15:52:25;10.82;;;2.45;;
22525;SDS011;11429;50.842;4.386;2024-03-23T15:54:51;4.75;;;1.70;;